createdAt,value
2022-12-14T00:01:18.222Z,41.17
2022-12-14T00:06:19.682Z,55.80
2022-12-14T00:11:21.137Z,19.67
2022-12-14T00:16:22.594Z,60.60
2022-12-14T00:21:24.019Z,14.70
2022-12-14T00:26:25.437Z,9.43
2022-12-14T00:31:26.921Z,28.33
2022-12-14T00:36:28.384Z,49.47
2022-12-14T00:41:29.799Z,41.67
2022-12-14T00:46:31.258Z,42.67
2022-12-14T00:51:32.697Z,18.43
2022-12-14T00:56:34.124Z,34.03
2022-12-14T01:01:35.729Z,13.57
2022-12-14T01:06:37.226Z,23.87
2022-12-14T01:11:38.628Z,24.10
2022-12-14T01:16:40.080Z,45.40
2022-12-14T01:21:41.574Z,26.33
2022-12-14T01:26:43.033Z,41.20
2022-12-14T01:31:44.487Z,27.63
2022-12-14T01:36:50.077Z,45.10
2022-12-14T01:41:51.524Z,17.37
2022-12-14T01:46:53.014Z,20.47
2022-12-14T01:51:54.465Z,45.57
2022-12-14T01:56:55.886Z,47.23
2022-12-14T02:01:57.388Z,28.27
2022-12-14T02:07:01.249Z,30.57
2022-12-14T02:12:02.964Z,30.17
2022-12-14T02:17:04.411Z,24.60
2022-12-14T02:22:05.832Z,20.90
2022-12-14T02:27:07.280Z,37.93
2022-12-14T02:32:08.705Z,42.23
2022-12-14T02:37:10.160Z,18.90
2022-12-14T02:42:11.589Z,25.17
2022-12-14T02:47:13.074Z,28.77
2022-12-14T02:52:14.570Z,26.73
2022-12-14T02:57:15.994Z,18.43
2022-12-14T03:02:17.539Z,15.37
2022-12-14T03:07:19.094Z,27.40
2022-12-14T03:12:20.504Z,32.00
2022-12-14T03:17:21.967Z,15.87
2022-12-14T03:22:23.425Z,17.80
2022-12-14T03:27:25.283Z,21.57
2022-12-14T03:32:26.812Z,15.07
2022-12-14T03:37:28.229Z,50.23
2022-12-14T03:42:29.711Z,42.60
2022-12-14T03:47:31.172Z,48.97
2022-12-14T03:52:32.599Z,18.20
2022-12-14T03:57:34.244Z,22.60
2022-12-14T04:02:40.719Z,6.60
2022-12-14T04:07:42.508Z,55.23
2022-12-14T04:12:49.443Z,11.07
2022-12-14T04:17:52.601Z,8.40
2022-12-14T04:22:54.105Z,18.53
2022-12-14T04:27:55.586Z,57.80
2022-12-14T04:32:57.033Z,39.47
2022-12-14T04:37:58.563Z,55.63
2022-12-14T04:42:59.982Z,66.97
2022-12-14T04:48:01.400Z,38.47
2022-12-14T04:53:02.823Z,48.00
2022-12-14T04:58:04.270Z,40.73
2022-12-14T05:03:05.809Z,47.60
2022-12-14T05:08:07.292Z,60.33
2022-12-14T05:13:08.710Z,30.23
2022-12-14T05:18:10.187Z,35.67
2022-12-14T05:23:11.648Z,20.13
2022-12-14T05:28:13.156Z,49.07
2022-12-14T05:33:14.570Z,70.67
2022-12-14T05:38:16.018Z,57.50
2022-12-14T05:43:17.492Z,58.27
2022-12-14T05:48:18.917Z,39.80
2022-12-14T05:53:20.377Z,67.83
2022-12-14T05:58:21.830Z,48.27
2022-12-14T06:03:23.287Z,19.70
2022-12-14T06:08:24.746Z,42.43
2022-12-14T06:13:26.472Z,48.13
2022-12-14T06:18:28.135Z,48.40
2022-12-14T06:23:29.929Z,52.87
2022-12-14T06:28:32.047Z,25.83
2022-12-14T06:33:33.551Z,24.63
2022-12-14T06:38:35.016Z,69.80
2022-12-14T06:43:36.446Z,36.20
2022-12-14T06:48:37.888Z,39.60
2022-12-14T06:53:39.353Z,77.27
2022-12-14T06:58:40.782Z,59.23
2022-12-14T07:03:42.293Z,39.07
2022-12-14T07:08:43.779Z,11.90
2022-12-14T07:13:45.250Z,29.43
2022-12-14T07:18:50.404Z,44.37
2022-12-14T07:23:51.825Z,48.67
2022-12-14T07:28:53.283Z,13.57
2022-12-14T07:33:54.709Z,26.40
2022-12-14T07:38:56.177Z,43.00
2022-12-14T07:43:57.643Z,72.70
2022-12-14T07:48:59.112Z,31.57
2022-12-14T07:54:00.545Z,35.50
2022-12-14T07:59:01.970Z,55.77
2022-12-14T08:04:03.414Z,35.73
2022-12-14T08:09:04.966Z,45.87
2022-12-14T08:14:06.431Z,48.30
2022-12-14T08:19:07.900Z,18.47
2022-12-14T08:24:09.364Z,22.60
2022-12-14T08:29:10.791Z,55.03
2022-12-14T08:34:12.238Z,36.27
2022-12-14T08:39:13.700Z,32.63
2022-12-14T08:44:15.186Z,30.77
2022-12-14T08:49:16.685Z,55.80
2022-12-14T08:54:18.310Z,74.80
2022-12-14T08:59:52.283Z,57.27
2022-12-14T09:04:41.348Z,61.20
2022-12-14T09:09:42.858Z,28.93
2022-12-14T09:14:44.309Z,71.23
2022-12-14T09:19:45.729Z,78.85
2022-12-14T09:24:47.304Z,50.10
2022-12-14T09:29:48.763Z,78.63
2022-12-14T09:34:50.187Z,42.15
2022-12-14T09:39:51.759Z,67.82
2022-12-14T09:44:53.215Z,49.80
2022-12-14T09:49:54.715Z,84.45
2022-12-14T09:54:56.174Z,36.38
2022-12-14T09:59:57.725Z,59.97
2022-12-14T10:04:59.218Z,32.88
2022-12-14T10:10:00.678Z,48.55
2022-12-14T10:15:02.112Z,47.13
2022-12-14T10:20:03.864Z,29.45
2022-12-14T10:25:05.384Z,27.15
2022-12-14T10:30:07.000Z,59.63
2022-12-14T10:35:10.687Z,44.58
2022-12-14T10:40:27.502Z,45.08
2022-12-14T10:45:41.250Z,46.53
2022-12-14T10:50:44.256Z,50.35
2022-12-14T10:55:51.546Z,66.47
2022-12-14T11:00:53.018Z,56.95
2022-12-14T11:05:54.500Z,77.68
2022-12-14T11:10:55.996Z,39.78
2022-12-14T11:15:57.773Z,28.40
2022-12-14T11:21:01.230Z,78.38
2022-12-14T11:26:03.119Z,53.40
2022-12-14T11:31:04.656Z,55.97
2022-12-14T11:36:06.396Z,63.85
2022-12-14T11:41:11.929Z,33.47
2022-12-14T11:46:13.907Z,27.27
2022-12-14T11:51:15.422Z,61.20
2022-12-14T11:56:17.044Z,71.82
2022-12-14T12:01:19.577Z,29.65
2022-12-14T12:06:21.343Z,31.60
2022-12-14T12:11:22.771Z,36.67
2022-12-14T12:16:24.938Z,37.17
2022-12-14T12:21:26.465Z,41.00
2022-12-14T12:26:27.876Z,50.10
2022-12-14T12:31:40.998Z,58.30
2022-12-14T12:37:24.634Z,42.53
2022-12-14T12:47:46.726Z,48.17
2022-12-14T12:52:49.369Z,44.97
2022-12-14T12:57:50.824Z,34.47
2022-12-14T13:02:52.436Z,34.28
2022-12-14T13:07:53.977Z,56.33
2022-12-14T13:12:55.431Z,32.22
2022-12-14T13:17:56.895Z,31.02
2022-12-14T13:23:05.704Z,25.52
2022-12-14T13:28:16.907Z,30.13
2022-12-14T13:33:18.375Z,39.13
2022-12-14T13:38:19.970Z,34.72
2022-12-14T13:43:21.462Z,46.60
2022-12-14T13:48:22.927Z,32.30
2022-12-14T13:53:24.451Z,29.02
2022-12-14T13:58:25.922Z,40.00
2022-12-14T14:03:27.640Z,38.65
2022-12-14T14:08:33.334Z,47.70
2022-12-14T14:13:39.527Z,38.60
2022-12-14T14:18:40.962Z,43.08
2022-12-14T14:23:42.422Z,29.17
2022-12-14T14:28:43.851Z,31.73
2022-12-14T14:33:50.942Z,36.83
2022-12-14T14:38:52.371Z,38.53
2022-12-14T14:43:54.012Z,76.28
2022-12-14T14:48:55.578Z,47.85
2022-12-14T14:53:57.049Z,56.97
2022-12-14T14:58:58.513Z,49.38
2022-12-14T15:04:00.116Z,46.58
2022-12-14T15:09:01.597Z,31.95
2022-12-14T15:14:03.055Z,31.23
2022-12-14T15:19:04.558Z,69.13
2022-12-14T15:24:06.645Z,41.65
2022-12-14T15:29:10.208Z,55.03
2022-12-14T15:34:13.234Z,37.55
2022-12-14T15:39:15.466Z,29.83
2022-12-14T15:44:17.295Z,38.05
2022-12-14T15:49:19.288Z,45.60
2022-12-14T15:54:20.836Z,95.55
2022-12-14T15:59:22.277Z,58.88
2022-12-14T16:04:23.812Z,76.88
2022-12-14T16:09:25.284Z,73.68
2022-12-14T16:14:26.718Z,89.53
2022-12-14T16:19:31.194Z,21.25
2022-12-14T16:24:33.023Z,36.88
2022-12-14T16:29:34.567Z,76.82
2022-12-14T16:34:36.075Z,28.02
2022-12-14T16:39:37.548Z,60.50
2022-12-14T16:44:39.042Z,43.08
2022-12-14T16:49:40.523Z,41.38
2022-12-14T16:54:42.038Z,90.18
2022-12-14T16:59:43.485Z,75.68
2022-12-14T17:04:44.987Z,124.68
2022-12-14T17:09:46.516Z,57.47
2022-12-14T17:14:50.239Z,83.57
2022-12-14T17:19:51.957Z,87.05
2022-12-14T17:24:53.495Z,25.70
2022-12-14T17:29:55.479Z,78.30
2022-12-14T17:34:56.974Z,40.92
2022-12-14T17:39:58.495Z,96.13
2022-12-14T17:45:00.021Z,44.80
2022-12-14T17:50:01.557Z,31.90
2022-12-14T17:55:03.116Z,40.75
2022-12-14T18:00:04.639Z,82.00
2022-12-14T18:05:06.078Z,104.65
2022-12-14T18:10:07.688Z,86.13
2022-12-14T18:15:09.227Z,69.22
2022-12-14T18:20:10.727Z,86.68
2022-12-14T18:25:12.270Z,59.28
2022-12-14T18:30:13.833Z,60.58
2022-12-14T18:35:15.343Z,66.20
2022-12-14T18:40:16.917Z,71.75
2022-12-14T18:45:18.555Z,82.15
2022-12-14T18:50:20.057Z,68.95
2022-12-14T18:55:21.650Z,88.55
2022-12-14T19:00:23.225Z,100.00
2022-12-14T19:05:26.488Z,40.08
2022-12-14T19:10:28.175Z,60.15
2022-12-14T19:15:29.734Z,77.28
2022-12-14T19:20:31.292Z,101.53
2022-12-14T19:25:32.813Z,68.85
2022-12-14T19:30:34.320Z,130.40
2022-12-14T19:35:35.864Z,43.08
2022-12-14T19:40:37.430Z,92.38
2022-12-14T19:45:38.969Z,91.65
2022-12-14T19:50:40.508Z,148.68
2022-12-14T19:55:42.017Z,130.30
2022-12-14T20:00:43.535Z,113.40
2022-12-14T20:05:45.048Z,130.30
2022-12-14T20:10:46.557Z,147.23
2022-12-14T20:15:48.179Z,131.30
2022-12-14T20:20:50.101Z,122.47
2022-12-14T20:25:51.687Z,132.68
2022-12-14T20:30:53.202Z,271.77
2022-12-14T20:35:54.733Z,246.95
2022-12-14T20:40:56.291Z,212.10
2022-12-14T20:45:57.801Z,172.43
2022-12-14T20:50:59.377Z,168.30
2022-12-14T20:56:00.868Z,154.82
2022-12-14T21:01:02.405Z,149.75
2022-12-14T21:06:03.901Z,161.93
2022-12-14T21:11:05.343Z,151.48
2022-12-14T21:16:06.849Z,161.30
2022-12-14T21:21:08.326Z,163.40
2022-12-14T21:26:09.783Z,148.80
2022-12-14T21:31:11.292Z,158.80
2022-12-14T21:36:12.785Z,151.68
2022-12-14T21:41:14.243Z,146.43
2022-12-14T21:46:15.731Z,150.60
2022-12-14T21:51:17.214Z,146.70
2022-12-14T21:56:18.672Z,159.40
2022-12-14T22:01:20.213Z,157.75
2022-12-14T22:06:21.686Z,152.75
2022-12-14T22:11:23.121Z,134.73
2022-12-14T22:16:24.630Z,113.50
2022-12-14T22:21:26.118Z,112.20
2022-12-14T22:26:27.573Z,105.00
2022-12-14T22:31:29.062Z,121.97
2022-12-14T22:36:30.575Z,116.03
2022-12-14T22:41:32.032Z,137.48
2022-12-14T22:46:33.575Z,117.88
2022-12-14T22:51:35.066Z,121.63
2022-12-14T22:56:36.477Z,118.90
2022-12-14T23:01:37.957Z,121.47
2022-12-14T23:06:39.434Z,126.70
2022-12-14T23:11:40.886Z,125.22
2022-12-14T23:16:42.356Z,124.65
2022-12-14T23:21:43.829Z,122.80
2022-12-14T23:26:45.286Z,120.25
2022-12-14T23:31:46.718Z,128.30
2022-12-14T23:36:48.163Z,124.43
2022-12-14T23:41:49.632Z,127.28
2022-12-14T23:46:51.087Z,134.07
2022-12-14T23:51:52.534Z,115.95
2022-12-14T23:56:53.982Z,129.07
